KGRI

Central Nebraska Regional Airport

Airport
ICAO code
KGRI
Summary
ICAO Region
NAM
ICAO Territory
Location

Grand Island, Nebraska,

Elevation
1847 ft
Coordinates
40° 58' 9" N , 98° 19' 7" W
KCC
Metar
Observation
KGRI 061453Z 00000KT 10SM OVC016 01/M02 A2967 RMK AO2 SLP065 T00111017 56020
Station
Grand Island, Central Nebraska Regional Airport
Date/Time
2023-02-06 14:53:00
Wind direction
Wind speed
00 kts
Lowest cloud amount
overcast
Temperature
1.1°C
Dew point
-1.7°C
Humidity
81%
Weather condition
n/a

Description

Central Nebraska Regional Airport is a public use airport located 5 km northeast of Grand Island, in Hall County, Nebraska.

Climatology

Humid continental climate (Köppen climate classification Dfa) - characterized by four seasons: cold, windy, snowy winters, mild springs, hot, humid summers, and crisp and relatively short autumns. Precipitation reaches its lowest in January and February and peaks in summer and latter half of spring.

Airport map

Aerial View

SKYbrary Partners:

Safety knowledge contributed by: